sensor_id;sensor_type;location;lat;lon;timestamp;temperature;humidity
7218;DHT22;3650;53.580;10.094;2023-07-31T00:00:09;17.90;92.00
7218;DHT22;3650;53.580;10.094;2023-07-31T00:02:35;17.90;92.00
7218;DHT22;3650;53.580;10.094;2023-07-31T00:05:03;17.90;92.10
7218;DHT22;3650;53.580;10.094;2023-07-31T00:07:32;17.90;92.10
7218;DHT22;3650;53.580;10.094;2023-07-31T00:09:59;17.90;92.10
7218;DHT22;3650;53.580;10.094;2023-07-31T00:12:26;17.90;92.10
7218;DHT22;3650;53.580;10.094;2023-07-31T00:14:53;17.90;92.10
7218;DHT22;3650;53.580;10.094;2023-07-31T00:17:19;17.90;92.10
7218;DHT22;3650;53.580;10.094;2023-07-31T00:19:46;17.80;92.10
7218;DHT22;3650;53.580;10.094;2023-07-31T00:22:16;17.80;92.10
7218;DHT22;3650;53.580;10.094;2023-07-31T00:24:44;17.80;92.20
7218;DHT22;3650;53.580;10.094;2023-07-31T00:27:10;17.80;92.20
7218;DHT22;3650;53.580;10.094;2023-07-31T00:29:37;17.80;92.30
7218;DHT22;3650;53.580;10.094;2023-07-31T00:32:05;17.80;92.30
7218;DHT22;3650;53.580;10.094;2023-07-31T00:34:32;17.80;92.30
7218;DHT22;3650;53.580;10.094;2023-07-31T00:36:59;17.80;92.30
7218;DHT22;3650;53.580;10.094;2023-07-31T00:39:26;17.90;92.40
7218;DHT22;3650;53.580;10.094;2023-07-31T00:41:54;17.80;92.30
7218;DHT22;3650;53.580;10.094;2023-07-31T00:44:20;17.80;92.40
7218;DHT22;3650;53.580;10.094;2023-07-31T00:46:47;17.80;92.40
7218;DHT22;3650;53.580;10.094;2023-07-31T00:49:14;17.90;92.40
7218;DHT22;3650;53.580;10.094;2023-07-31T00:51:41;17.80;92.30
7218;DHT22;3650;53.580;10.094;2023-07-31T00:54:08;17.80;92.30
7218;DHT22;3650;53.580;10.094;2023-07-31T00:56:36;17.90;92.30
7218;DHT22;3650;53.580;10.094;2023-07-31T00:59:04;17.90;92.30
7218;DHT22;3650;53.580;10.094;2023-07-31T01:01:31;17.80;92.30
7218;DHT22;3650;53.580;10.094;2023-07-31T01:03:58;17.90;92.20
7218;DHT22;3650;53.580;10.094;2023-07-31T01:06:29;17.80;92.20
7218;DHT22;3650;53.580;10.094;2023-07-31T01:09:02;17.80;92.20
7218;DHT22;3650;53.580;10.094;2023-07-31T01:11:31;17.80;92.10
7218;DHT22;3650;53.580;10.094;2023-07-31T01:13:59;17.80;92.10
7218;DHT22;3650;53.580;10.094;2023-07-31T01:16:28;17.80;91.90
7218;DHT22;3650;53.580;10.094;2023-07-31T01:18:54;17.80;91.80
7218;DHT22;3650;53.580;10.094;2023-07-31T01:21:41;17.80;91.80
7218;DHT22;3650;53.580;10.094;2023-07-31T01:24:22;17.80;91.80
7218;DHT22;3650;53.580;10.094;2023-07-31T01:26:55;17.80;91.70
7218;DHT22;3650;53.580;10.094;2023-07-31T01:29:28;17.80;91.70
7218;DHT22;3650;53.580;10.094;2023-07-31T01:32:01;17.80;91.60
7218;DHT22;3650;53.580;10.094;2023-07-31T01:34:28;17.80;91.60
7218;DHT22;3650;53.580;10.094;2023-07-31T01:36:56;17.80;91.60
7218;DHT22;3650;53.580;10.094;2023-07-31T01:39:22;17.80;91.70
7218;DHT22;3650;53.580;10.094;2023-07-31T01:41:50;17.80;91.70
7218;DHT22;3650;53.580;10.094;2023-07-31T01:44:17;17.80;91.70
7218;DHT22;3650;53.580;10.094;2023-07-31T01:46:44;17.80;91.70
7218;DHT22;3650;53.580;10.094;2023-07-31T01:49:11;17.80;91.80
7218;DHT22;3650;53.580;10.094;2023-07-31T01:51:38;17.80;91.90
7218;DHT22;3650;53.580;10.094;2023-07-31T01:54:04;17.80;92.00
7218;DHT22;3650;53.580;10.094;2023-07-31T01:56:31;17.80;92.10
7218;DHT22;3650;53.580;10.094;2023-07-31T01:58:59;17.80;92.20
7218;DHT22;3650;53.580;10.094;2023-07-31T02:01:26;17.80;92.20
7218;DHT22;3650;53.580;10.094;2023-07-31T02:03:53;17.80;92.30
7218;DHT22;3650;53.580;10.094;2023-07-31T02:06:20;17.90;92.40
7218;DHT22;3650;53.580;10.094;2023-07-31T02:08:48;17.90;92.40
7218;DHT22;3650;53.580;10.094;2023-07-31T02:11:15;17.90;92.50
7218;DHT22;3650;53.580;10.094;2023-07-31T02:13:42;17.90;92.50
7218;DHT22;3650;53.580;10.094;2023-07-31T02:16:10;17.90;92.50
7218;DHT22;3650;53.580;10.094;2023-07-31T02:18:36;17.90;92.40
7218;DHT22;3650;53.580;10.094;2023-07-31T02:21:03;18.00;92.50
7218;DHT22;3650;53.580;10.094;2023-07-31T02:23:30;18.00;92.50
7218;DHT22;3650;53.580;10.094;2023-07-31T02:25:57;18.00;92.40
7218;DHT22;3650;53.580;10.094;2023-07-31T02:28:24;18.00;92.40
7218;DHT22;3650;53.580;10.094;2023-07-31T02:30:50;18.00;92.40
7218;DHT22;3650;53.580;10.094;2023-07-31T02:33:19;18.00;92.30
7218;DHT22;3650;53.580;10.094;2023-07-31T02:35:46;18.00;92.30
7218;DHT22;3650;53.580;10.094;2023-07-31T02:38:12;18.00;92.30
7218;DHT22;3650;53.580;10.094;2023-07-31T02:40:40;18.00;92.30
7218;DHT22;3650;53.580;10.094;2023-07-31T02:43:07;18.00;92.30
7218;DHT22;3650;53.580;10.094;2023-07-31T02:45:34;18.10;92.40
7218;DHT22;3650;53.580;10.094;2023-07-31T02:48:01;18.10;92.40
7218;DHT22;3650;53.580;10.094;2023-07-31T02:50:29;18.10;92.40
7218;DHT22;3650;53.580;10.094;2023-07-31T02:52:55;18.10;92.40
7218;DHT22;3650;53.580;10.094;2023-07-31T02:55:22;18.10;92.40
7218;DHT22;3650;53.580;10.094;2023-07-31T02:57:49;18.10;92.50
7218;DHT22;3650;53.580;10.094;2023-07-31T03:00:20;18.10;92.50
7218;DHT22;3650;53.580;10.094;2023-07-31T03:02:47;18.10;92.40
7218;DHT22;3650;53.580;10.094;2023-07-31T03:05:14;18.10;92.40
7218;DHT22;3650;53.580;10.094;2023-07-31T03:07:42;18.20;92.40
7218;DHT22;3650;53.580;10.094;2023-07-31T03:10:09;18.20;92.40
7218;DHT22;3650;53.580;10.094;2023-07-31T03:12:36;18.20;92.40
7218;DHT22;3650;53.580;10.094;2023-07-31T03:15:03;18.20;92.40
7218;DHT22;3650;53.580;10.094;2023-07-31T03:17:30;18.20;92.40
7218;DHT22;3650;53.580;10.094;2023-07-31T03:19:57;18.20;92.50
7218;DHT22;3650;53.580;10.094;2023-07-31T03:22:24;18.20;92.50
7218;DHT22;3650;53.580;10.094;2023-07-31T03:24:52;18.20;92.40
7218;DHT22;3650;53.580;10.094;2023-07-31T03:27:18;18.30;92.40
7218;DHT22;3650;53.580;10.094;2023-07-31T03:29:45;18.30;92.50
7218;DHT22;3650;53.580;10.094;2023-07-31T03:32:12;18.30;92.50
7218;DHT22;3650;53.580;10.094;2023-07-31T03:34:39;18.20;92.30
7218;DHT22;3650;53.580;10.094;2023-07-31T03:37:06;18.30;92.50
7218;DHT22;3650;53.580;10.094;2023-07-31T03:39:34;18.30;92.40
7218;DHT22;3650;53.580;10.094;2023-07-31T03:42:03;18.30;92.70
7218;DHT22;3650;53.580;10.094;2023-07-31T03:44:30;18.30;92.30
7218;DHT22;3650;53.580;10.094;2023-07-31T03:46:56;18.30;92.30
7218;DHT22;3650;53.580;10.094;2023-07-31T03:49:23;18.20;92.40
7218;DHT22;3650;53.580;10.094;2023-07-31T03:51:50;18.20;92.50
7218;DHT22;3650;53.580;10.094;2023-07-31T03:54:17;18.20;92.50
7218;DHT22;3650;53.580;10.094;2023-07-31T03:56:44;18.30;92.50
7218;DHT22;3650;53.580;10.094;2023-07-31T03:59:12;18.20;92.90
7218;DHT22;3650;53.580;10.094;2023-07-31T04:01:38;18.30;92.50
7218;DHT22;3650;53.580;10.094;2023-07-31T04:04:05;18.30;92.60
7218;DHT22;3650;53.580;10.094;2023-07-31T04:06:32;18.30;92.50
7218;DHT22;3650;53.580;10.094;2023-07-31T04:08:59;18.30;92.50
7218;DHT22;3650;53.580;10.094;2023-07-31T04:11:25;18.30;92.50
7218;DHT22;3650;53.580;10.094;2023-07-31T04:13:52;18.30;92.70
7218;DHT22;3650;53.580;10.094;2023-07-31T04:16:20;18.30;92.50
7218;DHT22;3650;53.580;10.094;2023-07-31T04:18:47;18.40;92.50
7218;DHT22;3650;53.580;10.094;2023-07-31T04:21:14;18.40;92.50
7218;DHT22;3650;53.580;10.094;2023-07-31T04:23:41;18.40;92.60
7218;DHT22;3650;53.580;10.094;2023-07-31T04:26:08;18.40;92.60
7218;DHT22;3650;53.580;10.094;2023-07-31T04:28:34;18.40;92.60
7218;DHT22;3650;53.580;10.094;2023-07-31T04:31:01;18.40;92.70
7218;DHT22;3650;53.580;10.094;2023-07-31T04:33:29;18.40;92.50
7218;DHT22;3650;53.580;10.094;2023-07-31T04:35:56;18.40;92.50
7218;DHT22;3650;53.580;10.094;2023-07-31T04:38:23;18.40;92.40
7218;DHT22;3650;53.580;10.094;2023-07-31T04:40:50;18.40;92.30
7218;DHT22;3650;53.580;10.094;2023-07-31T04:43:17;18.40;92.50
7218;DHT22;3650;53.580;10.094;2023-07-31T04:45:45;18.40;92.10
7218;DHT22;3650;53.580;10.094;2023-07-31T04:48:13;18.40;92.30
7218;DHT22;3650;53.580;10.094;2023-07-31T04:50:41;18.40;92.50
7218;DHT22;3650;53.580;10.094;2023-07-31T04:53:08;18.40;92.40
7218;DHT22;3650;53.580;10.094;2023-07-31T04:55:35;18.40;92.50
7218;DHT22;3650;53.580;10.094;2023-07-31T04:58:02;18.40;92.60
7218;DHT22;3650;53.580;10.094;2023-07-31T05:00:29;18.50;92.60
7218;DHT22;3650;53.580;10.094;2023-07-31T05:02:55;18.40;92.70
7218;DHT22;3650;53.580;10.094;2023-07-31T05:05:22;18.40;92.80
7218;DHT22;3650;53.580;10.094;2023-07-31T05:07:50;18.40;93.00
7218;DHT22;3650;53.580;10.094;2023-07-31T05:10:17;18.40;93.20
7218;DHT22;3650;53.580;10.094;2023-07-31T05:12:44;18.40;93.40
7218;DHT22;3650;53.580;10.094;2023-07-31T05:15:11;18.40;93.40
7218;DHT22;3650;53.580;10.094;2023-07-31T05:17:38;18.40;93.40
7218;DHT22;3650;53.580;10.094;2023-07-31T05:20:06;18.40;93.50
7218;DHT22;3650;53.580;10.094;2023-07-31T05:22:32;18.40;93.30
7218;DHT22;3650;53.580;10.094;2023-07-31T05:25:01;18.40;93.30
7218;DHT22;3650;53.580;10.094;2023-07-31T05:27:27;18.40;93.30
7218;DHT22;3650;53.580;10.094;2023-07-31T05:29:54;18.40;93.30
7218;DHT22;3650;53.580;10.094;2023-07-31T05:32:21;18.30;93.30
7218;DHT22;3650;53.580;10.094;2023-07-31T05:34:51;18.40;93.50
7218;DHT22;3650;53.580;10.094;2023-07-31T05:37:18;18.40;93.50
7218;DHT22;3650;53.580;10.094;2023-07-31T05:39:48;18.40;93.60
7218;DHT22;3650;53.580;10.094;2023-07-31T05:42:16;18.40;93.50
7218;DHT22;3650;53.580;10.094;2023-07-31T05:44:43;18.40;93.70
7218;DHT22;3650;53.580;10.094;2023-07-31T05:47:10;18.40;93.70
7218;DHT22;3650;53.580;10.094;2023-07-31T05:49:37;18.40;93.80
7218;DHT22;3650;53.580;10.094;2023-07-31T05:52:04;18.40;93.50
7218;DHT22;3650;53.580;10.094;2023-07-31T05:54:32;18.40;93.50
7218;DHT22;3650;53.580;10.094;2023-07-31T05:56:58;18.40;93.50
7218;DHT22;3650;53.580;10.094;2023-07-31T05:59:27;18.40;93.60
7218;DHT22;3650;53.580;10.094;2023-07-31T06:01:53;18.40;93.60
7218;DHT22;3650;53.580;10.094;2023-07-31T06:04:20;18.40;93.70
7218;DHT22;3650;53.580;10.094;2023-07-31T06:06:47;18.40;93.70
7218;DHT22;3650;53.580;10.094;2023-07-31T06:09:13;18.40;93.80
7218;DHT22;3650;53.580;10.094;2023-07-31T06:11:40;18.40;94.00
7218;DHT22;3650;53.580;10.094;2023-07-31T06:14:07;18.40;94.00
7218;DHT22;3650;53.580;10.094;2023-07-31T06:16:35;18.50;94.00
7218;DHT22;3650;53.580;10.094;2023-07-31T06:19:02;18.40;94.00
7218;DHT22;3650;53.580;10.094;2023-07-31T06:21:29;18.40;94.00
7218;DHT22;3650;53.580;10.094;2023-07-31T06:23:56;18.40;94.00
7218;DHT22;3650;53.580;10.094;2023-07-31T06:26:23;18.50;94.00
7218;DHT22;3650;53.580;10.094;2023-07-31T06:28:51;18.40;94.00
7218;DHT22;3650;53.580;10.094;2023-07-31T06:31:18;18.40;94.00
7218;DHT22;3650;53.580;10.094;2023-07-31T06:33:49;18.40;94.40
7218;DHT22;3650;53.580;10.094;2023-07-31T06:36:16;18.40;94.60
7218;DHT22;3650;53.580;10.094;2023-07-31T06:38:43;18.40;94.70
7218;DHT22;3650;53.580;10.094;2023-07-31T06:41:10;18.40;95.20
7218;DHT22;3650;53.580;10.094;2023-07-31T06:43:36;18.40;94.80
7218;DHT22;3650;53.580;10.094;2023-07-31T06:46:05;18.50;94.90
7218;DHT22;3650;53.580;10.094;2023-07-31T06:48:32;18.50;94.90
7218;DHT22;3650;53.580;10.094;2023-07-31T06:51:00;18.50;94.90
7218;DHT22;3650;53.580;10.094;2023-07-31T06:53:28;18.50;95.00
7218;DHT22;3650;53.580;10.094;2023-07-31T06:55:55;18.50;95.00
7218;DHT22;3650;53.580;10.094;2023-07-31T06:58:22;18.50;95.20
7218;DHT22;3650;53.580;10.094;2023-07-31T07:00:48;18.50;95.00
7218;DHT22;3650;53.580;10.094;2023-07-31T07:03:17;18.50;94.80
7218;DHT22;3650;53.580;10.094;2023-07-31T07:05:44;18.50;94.80
7218;DHT22;3650;53.580;10.094;2023-07-31T07:08:12;18.50;94.90
7218;DHT22;3650;53.580;10.094;2023-07-31T07:10:39;18.50;95.00
7218;DHT22;3650;53.580;10.094;2023-07-31T07:13:06;18.50;95.00
7218;DHT22;3650;53.580;10.094;2023-07-31T07:15:33;18.50;95.10
7218;DHT22;3650;53.580;10.094;2023-07-31T07:17:59;18.50;94.90
7218;DHT22;3650;53.580;10.094;2023-07-31T07:20:26;18.50;94.90
7218;DHT22;3650;53.580;10.094;2023-07-31T07:22:53;18.50;95.00
7218;DHT22;3650;53.580;10.094;2023-07-31T07:25:21;18.50;95.50
7218;DHT22;3650;53.580;10.094;2023-07-31T07:27:48;18.50;95.50
7218;DHT22;3650;53.580;10.094;2023-07-31T07:30:15;18.40;96.10
7218;DHT22;3650;53.580;10.094;2023-07-31T07:32:41;18.50;96.20
7218;DHT22;3650;53.580;10.094;2023-07-31T07:35:09;18.50;96.20
7218;DHT22;3650;53.580;10.094;2023-07-31T07:37:35;18.50;96.20
7218;DHT22;3650;53.580;10.094;2023-07-31T07:40:02;18.50;96.30
7218;DHT22;3650;53.580;10.094;2023-07-31T07:42:30;18.30;96.50
7218;DHT22;3650;53.580;10.094;2023-07-31T07:44:58;18.50;96.90
7218;DHT22;3650;53.580;10.094;2023-07-31T07:47:25;18.50;97.10
7218;DHT22;3650;53.580;10.094;2023-07-31T07:49:51;18.50;97.20
7218;DHT22;3650;53.580;10.094;2023-07-31T07:52:18;18.50;97.30
7218;DHT22;3650;53.580;10.094;2023-07-31T07:54:45;18.50;97.20
7218;DHT22;3650;53.580;10.094;2023-07-31T07:57:11;18.60;97.30
7218;DHT22;3650;53.580;10.094;2023-07-31T07:59:40;18.60;97.40
7218;DHT22;3650;53.580;10.094;2023-07-31T08:02:07;18.60;97.50
7218;DHT22;3650;53.580;10.094;2023-07-31T08:04:34;18.60;97.50
7218;DHT22;3650;53.580;10.094;2023-07-31T08:07:01;18.60;97.50
7218;DHT22;3650;53.580;10.094;2023-07-31T08:09:27;18.60;97.50
7218;DHT22;3650;53.580;10.094;2023-07-31T08:11:54;18.60;97.50
7218;DHT22;3650;53.580;10.094;2023-07-31T08:14:23;18.60;97.50
7218;DHT22;3650;53.580;10.094;2023-07-31T08:16:51;18.70;97.70
7218;DHT22;3650;53.580;10.094;2023-07-31T08:19:18;18.60;98.00
7218;DHT22;3650;53.580;10.094;2023-07-31T08:21:45;18.70;97.90
7218;DHT22;3650;53.580;10.094;2023-07-31T08:24:12;18.70;97.90
7218;DHT22;3650;53.580;10.094;2023-07-31T08:26:38;18.60;97.80
7218;DHT22;3650;53.580;10.094;2023-07-31T08:29:05;18.60;97.80
7218;DHT22;3650;53.580;10.094;2023-07-31T08:31:32;18.70;97.80
7218;DHT22;3650;53.580;10.094;2023-07-31T08:34:01;18.70;97.70
7218;DHT22;3650;53.580;10.094;2023-07-31T08:36:28;18.70;97.60
7218;DHT22;3650;53.580;10.094;2023-07-31T08:38:54;18.70;97.80
7218;DHT22;3650;53.580;10.094;2023-07-31T08:41:21;18.80;98.10
7218;DHT22;3650;53.580;10.094;2023-07-31T08:43:49;18.80;98.30
7218;DHT22;3650;53.580;10.094;2023-07-31T08:46:17;18.70;98.40
7218;DHT22;3650;53.580;10.094;2023-07-31T08:48:44;18.80;98.60
7218;DHT22;3650;53.580;10.094;2023-07-31T08:51:14;18.80;98.60
7218;DHT22;3650;53.580;10.094;2023-07-31T08:53:41;18.90;98.50
7218;DHT22;3650;53.580;10.094;2023-07-31T08:56:08;18.90;98.40
7218;DHT22;3650;53.580;10.094;2023-07-31T08:58:36;18.90;98.50
7218;DHT22;3650;53.580;10.094;2023-07-31T09:01:04;18.90;98.40
7218;DHT22;3650;53.580;10.094;2023-07-31T09:03:33;18.90;98.10
7218;DHT22;3650;53.580;10.094;2023-07-31T09:06:00;18.90;97.50
7218;DHT22;3650;53.580;10.094;2023-07-31T09:08:31;18.90;97.30
7218;DHT22;3650;53.580;10.094;2023-07-31T09:10:59;18.90;97.30
7218;DHT22;3650;53.580;10.094;2023-07-31T09:13:30;18.90;97.30
7218;DHT22;3650;53.580;10.094;2023-07-31T09:15:57;18.90;97.60
7218;DHT22;3650;53.580;10.094;2023-07-31T09:18:24;18.90;97.60
7218;DHT22;3650;53.580;10.094;2023-07-31T09:21:01;18.80;97.80
7218;DHT22;3650;53.580;10.094;2023-07-31T09:23:42;18.80;97.80
7218;DHT22;3650;53.580;10.094;2023-07-31T09:26:09;18.80;97.80
7218;DHT22;3650;53.580;10.094;2023-07-31T09:28:37;18.80;98.00
7218;DHT22;3650;53.580;10.094;2023-07-31T09:31:04;18.80;98.00
7218;DHT22;3650;53.580;10.094;2023-07-31T09:33:30;18.80;98.20
7218;DHT22;3650;53.580;10.094;2023-07-31T09:35:59;18.80;98.30
7218;DHT22;3650;53.580;10.094;2023-07-31T09:38:26;18.80;98.40
7218;DHT22;3650;53.580;10.094;2023-07-31T09:40:55;18.80;98.60
7218;DHT22;3650;53.580;10.094;2023-07-31T09:43:25;18.90;98.60
7218;DHT22;3650;53.580;10.094;2023-07-31T09:45:55;18.90;98.50
7218;DHT22;3650;53.580;10.094;2023-07-31T09:48:24;18.90;98.20
7218;DHT22;3650;53.580;10.094;2023-07-31T09:50:53;18.90;98.10
7218;DHT22;3650;53.580;10.094;2023-07-31T09:53:28;18.90;98.00
7218;DHT22;3650;53.580;10.094;2023-07-31T09:55:57;18.90;97.60
7218;DHT22;3650;53.580;10.094;2023-07-31T09:58:27;18.90;97.60
7218;DHT22;3650;53.580;10.094;2023-07-31T10:00:55;18.90;97.60
7218;DHT22;3650;53.580;10.094;2023-07-31T10:03:24;18.90;97.60
7218;DHT22;3650;53.580;10.094;2023-07-31T10:05:53;18.90;97.70
7218;DHT22;3650;53.580;10.094;2023-07-31T10:08:26;18.90;97.70
7218;DHT22;3650;53.580;10.094;2023-07-31T10:10:59;18.90;97.80
7218;DHT22;3650;53.580;10.094;2023-07-31T10:13:27;18.90;97.80
7218;DHT22;3650;53.580;10.094;2023-07-31T10:15:59;18.90;97.80
7218;DHT22;3650;53.580;10.094;2023-07-31T10:18:26;18.90;97.60
7218;DHT22;3650;53.580;10.094;2023-07-31T10:20:54;18.90;97.90
7218;DHT22;3650;53.580;10.094;2023-07-31T10:23:22;18.90;98.20
7218;DHT22;3650;53.580;10.094;2023-07-31T10:25:50;18.90;98.30
7218;DHT22;3650;53.580;10.094;2023-07-31T10:28:20;18.90;98.40
7218;DHT22;3650;53.580;10.094;2023-07-31T10:30:47;18.90;98.40
7218;DHT22;3650;53.580;10.094;2023-07-31T10:33:16;18.80;98.50
7218;DHT22;3650;53.580;10.094;2023-07-31T10:35:43;18.80;98.70
7218;DHT22;3650;53.580;10.094;2023-07-31T10:38:11;18.80;99.10
7218;DHT22;3650;53.580;10.094;2023-07-31T10:40:38;18.80;98.90
7218;DHT22;3650;53.580;10.094;2023-07-31T10:43:05;18.80;99.00
7218;DHT22;3650;53.580;10.094;2023-07-31T10:45:36;18.80;98.90
7218;DHT22;3650;53.580;10.094;2023-07-31T10:48:04;18.80;99.00
7218;DHT22;3650;53.580;10.094;2023-07-31T10:50:32;18.80;99.20
7218;DHT22;3650;53.580;10.094;2023-07-31T10:52:59;18.80;99.30
7218;DHT22;3650;53.580;10.094;2023-07-31T10:55:29;18.80;99.40
7218;DHT22;3650;53.580;10.094;2023-07-31T10:57:57;18.80;99.50
7218;DHT22;3650;53.580;10.094;2023-07-31T11:00:26;18.80;99.50
7218;DHT22;3650;53.580;10.094;2023-07-31T11:02:59;18.70;99.50
7218;DHT22;3650;53.580;10.094;2023-07-31T11:05:47;18.70;99.70
7218;DHT22;3650;53.580;10.094;2023-07-31T11:08:15;18.70;99.80
7218;DHT22;3650;53.580;10.094;2023-07-31T11:10:42;18.70;99.90
7218;DHT22;3650;53.580;10.094;2023-07-31T11:13:10;18.70;99.90
7218;DHT22;3650;53.580;10.094;2023-07-31T11:15:37;18.70;99.90
7218;DHT22;3650;53.580;10.094;2023-07-31T11:18:05;18.70;99.90
7218;DHT22;3650;53.580;10.094;2023-07-31T11:20:34;18.80;99.90
7218;DHT22;3650;53.580;10.094;2023-07-31T11:23:01;18.70;99.90
7218;DHT22;3650;53.580;10.094;2023-07-31T11:25:29;18.80;99.90
7218;DHT22;3650;53.580;10.094;2023-07-31T11:27:57;18.80;99.90
7218;DHT22;3650;53.580;10.094;2023-07-31T11:30:23;18.80;99.90
7218;DHT22;3650;53.580;10.094;2023-07-31T11:32:50;18.80;99.90
7218;DHT22;3650;53.580;10.094;2023-07-31T11:35:19;18.80;99.90
7218;DHT22;3650;53.580;10.094;2023-07-31T11:37:45;18.90;99.90
7218;DHT22;3650;53.580;10.094;2023-07-31T11:40:12;18.90;99.90
7218;DHT22;3650;53.580;10.094;2023-07-31T11:42:39;19.00;99.90
7218;DHT22;3650;53.580;10.094;2023-07-31T11:45:07;19.00;99.90
7218;DHT22;3650;53.580;10.094;2023-07-31T11:47:35;19.00;99.90
7218;DHT22;3650;53.580;10.094;2023-07-31T11:50:03;19.00;99.90
7218;DHT22;3650;53.580;10.094;2023-07-31T11:52:35;19.00;99.90
7218;DHT22;3650;53.580;10.094;2023-07-31T11:55:03;19.10;99.90
7218;DHT22;3650;53.580;10.094;2023-07-31T11:57:31;19.10;99.90
7218;DHT22;3650;53.580;10.094;2023-07-31T11:59:59;19.10;99.90
7218;DHT22;3650;53.580;10.094;2023-07-31T12:02:26;19.10;99.90
7218;DHT22;3650;53.580;10.094;2023-07-31T12:04:53;19.10;99.90
7218;DHT22;3650;53.580;10.094;2023-07-31T12:07:19;19.10;99.90
7218;DHT22;3650;53.580;10.094;2023-07-31T12:09:54;19.10;99.90
7218;DHT22;3650;53.580;10.094;2023-07-31T12:12:23;19.00;99.90
7218;DHT22;3650;53.580;10.094;2023-07-31T12:14:50;19.00;99.90
7218;DHT22;3650;53.580;10.094;2023-07-31T12:17:19;18.90;99.90
7218;DHT22;3650;53.580;10.094;2023-07-31T12:19:48;18.90;99.90
7218;DHT22;3650;53.580;10.094;2023-07-31T12:22:16;18.80;99.90
7218;DHT22;3650;53.580;10.094;2023-07-31T12:24:43;18.80;99.90
7218;DHT22;3650;53.580;10.094;2023-07-31T12:27:13;18.80;99.90
7218;DHT22;3650;53.580;10.094;2023-07-31T12:29:41;18.70;99.90
7218;DHT22;3650;53.580;10.094;2023-07-31T12:32:23;18.70;99.90
7218;DHT22;3650;53.580;10.094;2023-07-31T12:34:50;18.70;99.90
7218;DHT22;3650;53.580;10.094;2023-07-31T12:37:17;18.70;99.90
7218;DHT22;3650;53.580;10.094;2023-07-31T12:39:44;18.60;99.90
7218;DHT22;3650;53.580;10.094;2023-07-31T12:42:12;18.60;99.90
7218;DHT22;3650;53.580;10.094;2023-07-31T12:44:39;18.60;99.90
7218;DHT22;3650;53.580;10.094;2023-07-31T12:47:05;18.60;99.90
7218;DHT22;3650;53.580;10.094;2023-07-31T12:49:32;18.60;99.90
7218;DHT22;3650;53.580;10.094;2023-07-31T12:51:59;18.60;99.90
7218;DHT22;3650;53.580;10.094;2023-07-31T12:54:26;18.70;99.90
7218;DHT22;3650;53.580;10.094;2023-07-31T12:56:52;18.70;99.90
7218;DHT22;3650;53.580;10.094;2023-07-31T12:59:21;18.70;99.90
7218;DHT22;3650;53.580;10.094;2023-07-31T13:01:48;18.70;99.90
7218;DHT22;3650;53.580;10.094;2023-07-31T13:04:14;18.70;99.90
7218;DHT22;3650;53.580;10.094;2023-07-31T13:06:41;18.80;99.90
7218;DHT22;3650;53.580;10.094;2023-07-31T13:09:08;18.70;99.90
7218;DHT22;3650;53.580;10.094;2023-07-31T13:11:35;18.80;99.90
7218;DHT22;3650;53.580;10.094;2023-07-31T13:14:01;18.70;99.90
7218;DHT22;3650;53.580;10.094;2023-07-31T13:16:29;18.80;99.90
7218;DHT22;3650;53.580;10.094;2023-07-31T13:18:56;18.80;99.90
7218;DHT22;3650;53.580;10.094;2023-07-31T13:21:23;18.80;99.90
7218;DHT22;3650;53.580;10.094;2023-07-31T13:23:50;18.80;99.90
7218;DHT22;3650;53.580;10.094;2023-07-31T13:26:16;18.80;99.90
7218;DHT22;3650;53.580;10.094;2023-07-31T13:28:43;18.70;99.90
7218;DHT22;3650;53.580;10.094;2023-07-31T13:31:10;18.80;99.90
7218;DHT22;3650;53.580;10.094;2023-07-31T13:33:39;18.80;99.90
7218;DHT22;3650;53.580;10.094;2023-07-31T13:36:05;18.80;99.90
7218;DHT22;3650;53.580;10.094;2023-07-31T13:38:32;18.70;99.90
7218;DHT22;3650;53.580;10.094;2023-07-31T13:40:59;18.70;99.90
7218;DHT22;3650;53.580;10.094;2023-07-31T13:43:26;18.70;99.90
7218;DHT22;3650;53.580;10.094;2023-07-31T13:45:52;18.70;99.90
7218;DHT22;3650;53.580;10.094;2023-07-31T13:48:19;18.80;99.90
7218;DHT22;3650;53.580;10.094;2023-07-31T13:50:47;18.70;99.90
7218;DHT22;3650;53.580;10.094;2023-07-31T13:53:14;18.70;99.90
7218;DHT22;3650;53.580;10.094;2023-07-31T13:55:41;18.70;99.90
7218;DHT22;3650;53.580;10.094;2023-07-31T13:58:10;18.80;99.90
7218;DHT22;3650;53.580;10.094;2023-07-31T14:00:37;18.70;99.90
7218;DHT22;3650;53.580;10.094;2023-07-31T14:03:04;18.70;99.90
7218;DHT22;3650;53.580;10.094;2023-07-31T14:05:31;18.70;99.90
7218;DHT22;3650;53.580;10.094;2023-07-31T14:07:59;18.80;99.90
7218;DHT22;3650;53.580;10.094;2023-07-31T14:10:26;18.70;99.90
7218;DHT22;3650;53.580;10.094;2023-07-31T14:12:53;18.70;99.90
7218;DHT22;3650;53.580;10.094;2023-07-31T14:15:19;18.70;99.90
7218;DHT22;3650;53.580;10.094;2023-07-31T14:17:46;18.80;99.90
7218;DHT22;3650;53.580;10.094;2023-07-31T14:20:13;18.70;99.90
7218;DHT22;3650;53.580;10.094;2023-07-31T14:22:40;18.80;99.90
7218;DHT22;3650;53.580;10.094;2023-07-31T14:25:08;18.80;99.90
7218;DHT22;3650;53.580;10.094;2023-07-31T14:27:36;18.80;99.90
7218;DHT22;3650;53.580;10.094;2023-07-31T14:30:03;18.80;99.90
7218;DHT22;3650;53.580;10.094;2023-07-31T14:32:30;18.80;99.90
7218;DHT22;3650;53.580;10.094;2023-07-31T14:34:57;18.80;99.90
7218;DHT22;3650;53.580;10.094;2023-07-31T14:37:25;18.80;99.90
7218;DHT22;3650;53.580;10.094;2023-07-31T14:39:52;18.80;99.90
7218;DHT22;3650;53.580;10.094;2023-07-31T14:42:21;18.80;99.90
7218;DHT22;3650;53.580;10.094;2023-07-31T14:44:48;18.80;99.90
7218;DHT22;3650;53.580;10.094;2023-07-31T14:47:14;18.80;99.90
7218;DHT22;3650;53.580;10.094;2023-07-31T14:49:41;18.90;99.90
7218;DHT22;3650;53.580;10.094;2023-07-31T14:52:08;18.90;99.90
7218;DHT22;3650;53.580;10.094;2023-07-31T14:54:35;18.90;99.90
7218;DHT22;3650;53.580;10.094;2023-07-31T14:57:01;18.90;99.90
7218;DHT22;3650;53.580;10.094;2023-07-31T14:59:30;18.90;99.90
7218;DHT22;3650;53.580;10.094;2023-07-31T15:01:56;18.90;99.90
7218;DHT22;3650;53.580;10.094;2023-07-31T15:04:23;18.90;99.90
7218;DHT22;3650;53.580;10.094;2023-07-31T15:06:50;18.90;99.90
7218;DHT22;3650;53.580;10.094;2023-07-31T15:09:17;19.00;99.90
7218;DHT22;3650;53.580;10.094;2023-07-31T15:11:44;19.00;99.90
7218;DHT22;3650;53.580;10.094;2023-07-31T15:14:10;19.10;99.90
7218;DHT22;3650;53.580;10.094;2023-07-31T15:16:38;19.10;99.90
7218;DHT22;3650;53.580;10.094;2023-07-31T15:19:05;19.10;99.90
7218;DHT22;3650;53.580;10.094;2023-07-31T15:21:32;19.20;99.90
7218;DHT22;3650;53.580;10.094;2023-07-31T15:23:59;19.20;99.90
7218;DHT22;3650;53.580;10.094;2023-07-31T15:26:26;19.20;99.90
7218;DHT22;3650;53.580;10.094;2023-07-31T15:28:57;19.20;99.90
7218;DHT22;3650;53.580;10.094;2023-07-31T15:31:26;19.20;99.90
7218;DHT22;3650;53.580;10.094;2023-07-31T15:33:54;19.30;99.90
7218;DHT22;3650;53.580;10.094;2023-07-31T15:36:21;19.30;99.90
7218;DHT22;3650;53.580;10.094;2023-07-31T15:38:48;19.30;99.90
7218;DHT22;3650;53.580;10.094;2023-07-31T15:41:16;19.40;99.90
7218;DHT22;3650;53.580;10.094;2023-07-31T15:43:43;19.40;99.90
7218;DHT22;3650;53.580;10.094;2023-07-31T15:46:10;19.40;99.90